sensor_id;sensor_type;location;lat;lon;timestamp;P1;durP1;ratioP1;P2;durP2;ratioP2
7031;SDS011;3557;48.880;8.328;2024-03-06T00:00:35;4.07;;;2.90;;
7031;SDS011;3557;48.880;8.328;2024-03-06T00:03:03;5.03;;;3.10;;
7031;SDS011;3557;48.880;8.328;2024-03-06T00:05:30;6.30;;;4.20;;
7031;SDS011;3557;48.880;8.328;2024-03-06T00:07:59;6.33;;;3.40;;
7031;SDS011;3557;48.880;8.328;2024-03-06T00:10:28;4.20;;;2.97;;
7031;SDS011;3557;48.880;8.328;2024-03-06T00:12:56;3.93;;;2.90;;
7031;SDS011;3557;48.880;8.328;2024-03-06T00:15:23;10.47;;;4.33;;
7031;SDS011;3557;48.880;8.328;2024-03-06T00:17:51;4.00;;;2.50;;
7031;SDS011;3557;48.880;8.328;2024-03-06T00:20:18;4.57;;;2.90;;
7031;SDS011;3557;48.880;8.328;2024-03-06T00:22:45;3.13;;;2.50;;
7031;SDS011;3557;48.880;8.328;2024-03-06T00:25:14;3.93;;;2.50;;
7031;SDS011;3557;48.880;8.328;2024-03-06T00:27:42;4.47;;;2.33;;
7031;SDS011;3557;48.880;8.328;2024-03-06T00:30:10;3.20;;;2.60;;
7031;SDS011;3557;48.880;8.328;2024-03-06T00:32:38;4.63;;;2.53;;
7031;SDS011;3557;48.880;8.328;2024-03-06T00:35:05;5.47;;;2.60;;
7031;SDS011;3557;48.880;8.328;2024-03-06T00:37:34;6.10;;;2.10;;
7031;SDS011;3557;48.880;8.328;2024-03-06T00:40:01;5.90;;;2.07;;
7031;SDS011;3557;48.880;8.328;2024-03-06T00:42:30;2.53;;;2.13;;
7031;SDS011;3557;48.880;8.328;2024-03-06T00:44:58;2.10;;;1.70;;
7031;SDS011;3557;48.880;8.328;2024-03-06T00:47:27;6.43;;;1.97;;
7031;SDS011;3557;48.880;8.328;2024-03-06T00:49:54;2.90;;;1.70;;
7031;SDS011;3557;48.880;8.328;2024-03-06T00:52:21;4.93;;;2.03;;
7031;SDS011;3557;48.880;8.328;2024-03-06T00:54:49;4.70;;;2.67;;
7031;SDS011;3557;48.880;8.328;2024-03-06T00:57:16;3.07;;;1.93;;
7031;SDS011;3557;48.880;8.328;2024-03-06T00:59:45;2.50;;;1.70;;
7031;SDS011;3557;48.880;8.328;2024-03-06T01:02:12;3.40;;;1.90;;
7031;SDS011;3557;48.880;8.328;2024-03-06T01:04:39;2.83;;;1.70;;
7031;SDS011;3557;48.880;8.328;2024-03-06T01:07:08;7.07;;;4.30;;
7031;SDS011;3557;48.880;8.328;2024-03-06T01:09:35;11.83;;;7.10;;
7031;SDS011;3557;48.880;8.328;2024-03-06T01:12:02;18.33;;;10.17;;
7031;SDS011;3557;48.880;8.328;2024-03-06T01:14:30;16.67;;;7.53;;
7031;SDS011;3557;48.880;8.328;2024-03-06T01:16:59;5.00;;;2.50;;
7031;SDS011;3557;48.880;8.328;2024-03-06T01:19:27;5.07;;;2.60;;
7031;SDS011;3557;48.880;8.328;2024-03-06T01:21:54;15.30;;;7.83;;
7031;SDS011;3557;48.880;8.328;2024-03-06T01:24:22;8.43;;;4.63;;
7031;SDS011;3557;48.880;8.328;2024-03-06T01:26:49;8.87;;;4.50;;
7031;SDS011;3557;48.880;8.328;2024-03-06T01:29:16;10.37;;;4.50;;
7031;SDS011;3557;48.880;8.328;2024-03-06T01:31:44;6.30;;;4.03;;
7031;SDS011;3557;48.880;8.328;2024-03-06T01:34:13;6.27;;;4.00;;
7031;SDS011;3557;48.880;8.328;2024-03-06T01:36:40;5.73;;;3.43;;
7031;SDS011;3557;48.880;8.328;2024-03-06T01:39:07;5.33;;;3.60;;
7031;SDS011;3557;48.880;8.328;2024-03-06T01:41:35;4.50;;;2.93;;
7031;SDS011;3557;48.880;8.328;2024-03-06T01:44:03;4.23;;;2.73;;
7031;SDS011;3557;48.880;8.328;2024-03-06T01:46:30;5.20;;;3.20;;
7031;SDS011;3557;48.880;8.328;2024-03-06T01:48:58;2.87;;;1.80;;
7031;SDS011;3557;48.880;8.328;2024-03-06T01:51:27;3.73;;;2.53;;
7031;SDS011;3557;48.880;8.328;2024-03-06T01:53:54;2.97;;;2.10;;
7031;SDS011;3557;48.880;8.328;2024-03-06T01:56:22;18.23;;;10.73;;
7031;SDS011;3557;48.880;8.328;2024-03-06T01:58:49;26.20;;;14.63;;
7031;SDS011;3557;48.880;8.328;2024-03-06T02:01:17;5.23;;;3.00;;
7031;SDS011;3557;48.880;8.328;2024-03-06T02:03:44;3.13;;;1.93;;
7031;SDS011;3557;48.880;8.328;2024-03-06T02:06:12;2.43;;;1.77;;
7031;SDS011;3557;48.880;8.328;2024-03-06T02:08:45;3.63;;;1.70;;
7031;SDS011;3557;48.880;8.328;2024-03-06T02:11:13;1.90;;;1.53;;
7031;SDS011;3557;48.880;8.328;2024-03-06T02:13:42;3.13;;;2.80;;
7031;SDS011;3557;48.880;8.328;2024-03-06T02:16:09;3.40;;;2.50;;
7031;SDS011;3557;48.880;8.328;2024-03-06T02:18:37;3.30;;;2.50;;
7031;SDS011;3557;48.880;8.328;2024-03-06T02:21:16;11.87;;;6.50;;
7031;SDS011;3557;48.880;8.328;2024-03-06T02:23:44;7.40;;;3.30;;
7031;SDS011;3557;48.880;8.328;2024-03-06T02:26:11;4.73;;;3.27;;
7031;SDS011;3557;48.880;8.328;2024-03-06T02:28:38;6.80;;;2.40;;
7031;SDS011;3557;48.880;8.328;2024-03-06T02:31:12;6.50;;;3.20;;
7031;SDS011;3557;48.880;8.328;2024-03-06T02:33:39;5.77;;;3.23;;
7031;SDS011;3557;48.880;8.328;2024-03-06T02:36:07;4.87;;;3.00;;
7031;SDS011;3557;48.880;8.328;2024-03-06T02:38:36;4.67;;;2.50;;
7031;SDS011;3557;48.880;8.328;2024-03-06T02:41:03;4.13;;;2.60;;
7031;SDS011;3557;48.880;8.328;2024-03-06T02:43:32;4.63;;;2.70;;
7031;SDS011;3557;48.880;8.328;2024-03-06T02:45:59;6.23;;;3.27;;
7031;SDS011;3557;48.880;8.328;2024-03-06T02:48:26;3.80;;;2.27;;
7031;SDS011;3557;48.880;8.328;2024-03-06T02:50:54;5.93;;;2.50;;
7031;SDS011;3557;48.880;8.328;2024-03-06T02:53:22;5.63;;;2.53;;
7031;SDS011;3557;48.880;8.328;2024-03-06T02:55:52;3.23;;;2.17;;
7031;SDS011;3557;48.880;8.328;2024-03-06T02:58:19;3.10;;;2.10;;
7031;SDS011;3557;48.880;8.328;2024-03-06T03:00:46;5.07;;;2.30;;
7031;SDS011;3557;48.880;8.328;2024-03-06T03:03:14;5.60;;;2.30;;
7031;SDS011;3557;48.880;8.328;2024-03-06T03:05:41;5.23;;;2.50;;
7031;SDS011;3557;48.880;8.328;2024-03-06T03:08:09;5.33;;;2.80;;
7031;SDS011;3557;48.880;8.328;2024-03-06T03:10:36;4.27;;;2.57;;
7031;SDS011;3557;48.880;8.328;2024-03-06T03:13:05;4.60;;;2.60;;
7031;SDS011;3557;48.880;8.328;2024-03-06T03:15:33;5.30;;;3.27;;
7031;SDS011;3557;48.880;8.328;2024-03-06T03:18:00;4.43;;;2.50;;
7031;SDS011;3557;48.880;8.328;2024-03-06T03:20:28;4.83;;;2.27;;
7031;SDS011;3557;48.880;8.328;2024-03-06T03:22:55;4.33;;;2.77;;
7031;SDS011;3557;48.880;8.328;2024-03-06T03:25:22;3.03;;;2.43;;
7031;SDS011;3557;48.880;8.328;2024-03-06T03:27:50;4.93;;;2.77;;
7031;SDS011;3557;48.880;8.328;2024-03-06T03:30:19;4.57;;;2.80;;
7031;SDS011;3557;48.880;8.328;2024-03-06T03:32:47;3.67;;;2.40;;
7031;SDS011;3557;48.880;8.328;2024-03-06T03:35:14;4.23;;;2.60;;
7031;SDS011;3557;48.880;8.328;2024-03-06T03:37:42;4.57;;;2.93;;
7031;SDS011;3557;48.880;8.328;2024-03-06T03:40:10;3.13;;;2.67;;
7031;SDS011;3557;48.880;8.328;2024-03-06T03:42:37;3.23;;;2.70;;
7031;SDS011;3557;48.880;8.328;2024-03-06T03:45:04;4.77;;;2.80;;
7031;SDS011;3557;48.880;8.328;2024-03-06T03:47:33;5.17;;;2.70;;
7031;SDS011;3557;48.880;8.328;2024-03-06T03:50:01;4.13;;;3.10;;
7031;SDS011;3557;48.880;8.328;2024-03-06T03:52:29;3.63;;;2.40;;
7031;SDS011;3557;48.880;8.328;2024-03-06T03:54:56;5.00;;;2.70;;
7031;SDS011;3557;48.880;8.328;2024-03-06T03:57:24;4.13;;;3.03;;
7031;SDS011;3557;48.880;8.328;2024-03-06T03:59:51;3.33;;;2.87;;
7031;SDS011;3557;48.880;8.328;2024-03-06T04:02:19;3.10;;;2.50;;
7031;SDS011;3557;48.880;8.328;2024-03-06T04:04:47;4.33;;;2.23;;
7031;SDS011;3557;48.880;8.328;2024-03-06T04:07:15;2.50;;;2.30;;
7031;SDS011;3557;48.880;8.328;2024-03-06T04:09:44;3.50;;;2.30;;
7031;SDS011;3557;48.880;8.328;2024-03-06T04:12:12;4.83;;;2.70;;
7031;SDS011;3557;48.880;8.328;2024-03-06T04:14:40;5.93;;;2.63;;
7031;SDS011;3557;48.880;8.328;2024-03-06T04:17:07;7.77;;;2.90;;
7031;SDS011;3557;48.880;8.328;2024-03-06T04:19:35;4.43;;;2.90;;
7031;SDS011;3557;48.880;8.328;2024-03-06T04:22:03;5.07;;;3.33;;
7031;SDS011;3557;48.880;8.328;2024-03-06T04:24:31;6.20;;;4.33;;
7031;SDS011;3557;48.880;8.328;2024-03-06T04:26:58;5.27;;;3.03;;
7031;SDS011;3557;48.880;8.328;2024-03-06T04:29:26;6.33;;;2.80;;
7031;SDS011;3557;48.880;8.328;2024-03-06T04:31:53;4.50;;;2.70;;
7031;SDS011;3557;48.880;8.328;2024-03-06T04:34:20;6.10;;;2.70;;
7031;SDS011;3557;48.880;8.328;2024-03-06T04:36:48;3.70;;;2.70;;
7031;SDS011;3557;48.880;8.328;2024-03-06T04:39:17;4.50;;;2.80;;
7031;SDS011;3557;48.880;8.328;2024-03-06T04:41:44;5.17;;;2.50;;
7031;SDS011;3557;48.880;8.328;2024-03-06T04:44:12;3.80;;;2.50;;
7031;SDS011;3557;48.880;8.328;2024-03-06T04:46:39;3.87;;;2.77;;
7031;SDS011;3557;48.880;8.328;2024-03-06T04:49:07;7.47;;;3.23;;
7031;SDS011;3557;48.880;8.328;2024-03-06T04:51:34;3.43;;;2.70;;
7031;SDS011;3557;48.880;8.328;2024-03-06T04:54:02;5.53;;;3.00;;
7031;SDS011;3557;48.880;8.328;2024-03-06T04:56:30;5.40;;;3.60;;
7031;SDS011;3557;48.880;8.328;2024-03-06T04:58:59;7.77;;;3.00;;
7031;SDS011;3557;48.880;8.328;2024-03-06T05:01:28;3.93;;;2.80;;
7031;SDS011;3557;48.880;8.328;2024-03-06T05:03:56;6.70;;;3.60;;
7031;SDS011;3557;48.880;8.328;2024-03-06T05:06:23;5.13;;;3.30;;
7031;SDS011;3557;48.880;8.328;2024-03-06T05:08:51;4.03;;;3.40;;
7031;SDS011;3557;48.880;8.328;2024-03-06T05:11:18;12.83;;;4.67;;
7031;SDS011;3557;48.880;8.328;2024-03-06T05:13:47;6.10;;;4.07;;
7031;SDS011;3557;48.880;8.328;2024-03-06T05:16:15;8.23;;;4.73;;
7031;SDS011;3557;48.880;8.328;2024-03-06T05:18:42;8.43;;;4.63;;
7031;SDS011;3557;48.880;8.328;2024-03-06T05:21:10;8.40;;;6.30;;
7031;SDS011;3557;48.880;8.328;2024-03-06T05:23:38;12.30;;;9.10;;
7031;SDS011;3557;48.880;8.328;2024-03-06T05:26:05;11.23;;;7.50;;
7031;SDS011;3557;48.880;8.328;2024-03-06T05:28:33;8.90;;;6.50;;
7031;SDS011;3557;48.880;8.328;2024-03-06T05:31:13;11.63;;;7.20;;
7031;SDS011;3557;48.880;8.328;2024-03-06T05:33:44;10.33;;;5.73;;
7031;SDS011;3557;48.880;8.328;2024-03-06T05:36:12;6.93;;;5.30;;
7031;SDS011;3557;48.880;8.328;2024-03-06T05:38:40;9.57;;;5.80;;
7031;SDS011;3557;48.880;8.328;2024-03-06T05:41:07;6.90;;;5.60;;
7031;SDS011;3557;48.880;8.328;2024-03-06T05:43:35;6.53;;;5.57;;
7031;SDS011;3557;48.880;8.328;2024-03-06T05:46:04;8.07;;;5.20;;
7031;SDS011;3557;48.880;8.328;2024-03-06T05:48:31;5.57;;;4.33;;
7031;SDS011;3557;48.880;8.328;2024-03-06T05:50:59;7.97;;;4.80;;
7031;SDS011;3557;48.880;8.328;2024-03-06T05:53:26;6.00;;;4.60;;
7031;SDS011;3557;48.880;8.328;2024-03-06T05:55:53;5.93;;;4.73;;
7031;SDS011;3557;48.880;8.328;2024-03-06T05:58:21;12.80;;;4.97;;
7031;SDS011;3557;48.880;8.328;2024-03-06T06:00:49;6.43;;;4.30;;
7031;SDS011;3557;48.880;8.328;2024-03-06T06:03:17;8.33;;;4.33;;
7031;SDS011;3557;48.880;8.328;2024-03-06T06:05:45;7.67;;;4.30;;
7031;SDS011;3557;48.880;8.328;2024-03-06T06:08:12;7.17;;;3.70;;
7031;SDS011;3557;48.880;8.328;2024-03-06T06:10:47;5.00;;;3.33;;
7031;SDS011;3557;48.880;8.328;2024-03-06T06:13:16;5.57;;;3.40;;
7031;SDS011;3557;48.880;8.328;2024-03-06T06:15:44;4.90;;;3.27;;
7031;SDS011;3557;48.880;8.328;2024-03-06T06:18:11;3.80;;;3.40;;
7031;SDS011;3557;48.880;8.328;2024-03-06T06:20:41;8.13;;;3.50;;
7031;SDS011;3557;48.880;8.328;2024-03-06T06:23:09;6.53;;;3.40;;
7031;SDS011;3557;48.880;8.328;2024-03-06T06:25:37;6.33;;;3.50;;
7031;SDS011;3557;48.880;8.328;2024-03-06T06:28:04;5.40;;;3.27;;
7031;SDS011;3557;48.880;8.328;2024-03-06T06:30:32;9.00;;;3.40;;
7031;SDS011;3557;48.880;8.328;2024-03-06T06:32:59;7.67;;;3.00;;
7031;SDS011;3557;48.880;8.328;2024-03-06T06:35:26;5.07;;;3.20;;
7031;SDS011;3557;48.880;8.328;2024-03-06T06:37:55;3.27;;;2.97;;
7031;SDS011;3557;48.880;8.328;2024-03-06T06:40:23;5.67;;;3.20;;
7031;SDS011;3557;48.880;8.328;2024-03-06T06:42:50;5.03;;;3.70;;
7031;SDS011;3557;48.880;8.328;2024-03-06T06:45:18;7.43;;;4.50;;
7031;SDS011;3557;48.880;8.328;2024-03-06T06:47:46;5.33;;;3.57;;
7031;SDS011;3557;48.880;8.328;2024-03-06T06:50:15;7.63;;;6.13;;
7031;SDS011;3557;48.880;8.328;2024-03-06T06:52:43;5.20;;;3.70;;
7031;SDS011;3557;48.880;8.328;2024-03-06T06:55:13;6.95;;;3.60;;
7031;SDS011;3557;48.880;8.328;2024-03-06T06:57:41;5.40;;;3.20;;
7031;SDS011;3557;48.880;8.328;2024-03-06T07:00:09;4.87;;;2.70;;
7031;SDS011;3557;48.880;8.328;2024-03-06T07:02:38;4.63;;;3.53;;
7031;SDS011;3557;48.880;8.328;2024-03-06T07:05:06;3.78;;;2.60;;
7031;SDS011;3557;48.880;8.328;2024-03-06T07:07:35;4.40;;;3.08;;
7031;SDS011;3557;48.880;8.328;2024-03-06T07:10:03;7.95;;;2.90;;
7031;SDS011;3557;48.880;8.328;2024-03-06T07:12:33;3.97;;;2.75;;
7031;SDS011;3557;48.880;8.328;2024-03-06T07:15:01;4.35;;;3.20;;
7031;SDS011;3557;48.880;8.328;2024-03-06T07:17:29;6.77;;;3.10;;
7031;SDS011;3557;48.880;8.328;2024-03-06T07:19:56;5.03;;;3.00;;
7031;SDS011;3557;48.880;8.328;2024-03-06T07:22:24;5.18;;;3.20;;
7031;SDS011;3557;48.880;8.328;2024-03-06T07:24:52;5.73;;;3.30;;
7031;SDS011;3557;48.880;8.328;2024-03-06T07:27:19;7.43;;;3.70;;
7031;SDS011;3557;48.880;8.328;2024-03-06T07:29:48;5.03;;;3.30;;
7031;SDS011;3557;48.880;8.328;2024-03-06T07:32:16;7.67;;;3.60;;
7031;SDS011;3557;48.880;8.328;2024-03-06T07:34:43;5.27;;;3.47;;
7031;SDS011;3557;48.880;8.328;2024-03-06T07:37:10;4.30;;;3.28;;
7031;SDS011;3557;48.880;8.328;2024-03-06T07:39:39;4.13;;;3.17;;
7031;SDS011;3557;48.880;8.328;2024-03-06T07:42:07;3.73;;;3.37;;
7031;SDS011;3557;48.880;8.328;2024-03-06T07:44:35;5.07;;;3.50;;
7031;SDS011;3557;48.880;8.328;2024-03-06T07:47:04;4.97;;;3.60;;
7031;SDS011;3557;48.880;8.328;2024-03-06T07:49:32;7.37;;;3.63;;
7031;SDS011;3557;48.880;8.328;2024-03-06T07:52:00;3.80;;;3.27;;
7031;SDS011;3557;48.880;8.328;2024-03-06T07:54:27;5.63;;;4.17;;
7031;SDS011;3557;48.880;8.328;2024-03-06T07:56:54;4.43;;;3.60;;
7031;SDS011;3557;48.880;8.328;2024-03-06T07:59:22;5.57;;;4.27;;
7031;SDS011;3557;48.880;8.328;2024-03-06T08:01:49;5.57;;;3.67;;
7031;SDS011;3557;48.880;8.328;2024-03-06T08:04:19;7.73;;;3.60;;
7031;SDS011;3557;48.880;8.328;2024-03-06T08:06:46;5.73;;;3.70;;
7031;SDS011;3557;48.880;8.328;2024-03-06T08:09:13;8.27;;;3.77;;
7031;SDS011;3557;48.880;8.328;2024-03-06T08:11:41;6.53;;;4.00;;
7031;SDS011;3557;48.880;8.328;2024-03-06T08:14:09;8.45;;;3.78;;
7031;SDS011;3557;48.880;8.328;2024-03-06T08:16:36;5.63;;;3.57;;
7031;SDS011;3557;48.880;8.328;2024-03-06T08:19:04;6.53;;;3.77;;
7031;SDS011;3557;48.880;8.328;2024-03-06T08:21:33;9.23;;;5.00;;
7031;SDS011;3557;48.880;8.328;2024-03-06T08:24:00;5.03;;;4.00;;
7031;SDS011;3557;48.880;8.328;2024-03-06T08:26:27;7.38;;;4.10;;
7031;SDS011;3557;48.880;8.328;2024-03-06T08:28:55;7.00;;;4.10;;
7031;SDS011;3557;48.880;8.328;2024-03-06T08:31:22;5.83;;;3.80;;
7031;SDS011;3557;48.880;8.328;2024-03-06T08:33:50;6.70;;;3.97;;
7031;SDS011;3557;48.880;8.328;2024-03-06T08:36:18;5.37;;;3.90;;
7031;SDS011;3557;48.880;8.328;2024-03-06T08:38:47;6.43;;;3.90;;
7031;SDS011;3557;48.880;8.328;2024-03-06T08:41:16;4.77;;;3.40;;
7031;SDS011;3557;48.880;8.328;2024-03-06T08:43:45;5.53;;;3.70;;
7031;SDS011;3557;48.880;8.328;2024-03-06T08:46:12;5.83;;;3.90;;
7031;SDS011;3557;48.880;8.328;2024-03-06T08:48:40;11.27;;;4.20;;
7031;SDS011;3557;48.880;8.328;2024-03-06T08:51:07;6.23;;;4.03;;
7031;SDS011;3557;48.880;8.328;2024-03-06T08:53:36;7.30;;;4.53;;
7031;SDS011;3557;48.880;8.328;2024-03-06T08:56:06;6.50;;;4.43;;
7031;SDS011;3557;48.880;8.328;2024-03-06T08:58:33;9.47;;;4.40;;
7031;SDS011;3557;48.880;8.328;2024-03-06T09:01:01;5.73;;;4.57;;
7031;SDS011;3557;48.880;8.328;2024-03-06T09:03:29;6.68;;;4.13;;
7031;SDS011;3557;48.880;8.328;2024-03-06T09:05:58;6.93;;;4.20;;
7031;SDS011;3557;48.880;8.328;2024-03-06T09:08:25;7.00;;;4.40;;
7031;SDS011;3557;48.880;8.328;2024-03-06T09:10:53;9.30;;;4.57;;
7031;SDS011;3557;48.880;8.328;2024-03-06T09:13:25;8.93;;;3.95;;
7031;SDS011;3557;48.880;8.328;2024-03-06T09:15:52;6.32;;;4.25;;
7031;SDS011;3557;48.880;8.328;2024-03-06T09:18:20;4.57;;;3.67;;
7031;SDS011;3557;48.880;8.328;2024-03-06T09:20:47;7.40;;;4.32;;
7031;SDS011;3557;48.880;8.328;2024-03-06T09:23:14;5.38;;;4.10;;
7031;SDS011;3557;48.880;8.328;2024-03-06T09:25:42;6.00;;;3.80;;
7031;SDS011;3557;48.880;8.328;2024-03-06T09:28:10;7.60;;;4.10;;
7031;SDS011;3557;48.880;8.328;2024-03-06T09:30:39;7.13;;;3.85;;
7031;SDS011;3557;48.880;8.328;2024-03-06T09:33:07;4.82;;;3.83;;
7031;SDS011;3557;48.880;8.328;2024-03-06T09:35:34;5.72;;;3.92;;
7031;SDS011;3557;48.880;8.328;2024-03-06T09:38:01;5.82;;;4.15;;
7031;SDS011;3557;48.880;8.328;2024-03-06T09:40:29;8.75;;;4.10;;
7031;SDS011;3557;48.880;8.328;2024-03-06T09:42:56;5.40;;;4.00;;
7031;SDS011;3557;48.880;8.328;2024-03-06T09:45:24;4.78;;;4.25;;
7031;SDS011;3557;48.880;8.328;2024-03-06T09:47:53;4.90;;;4.03;;
7031;SDS011;3557;48.880;8.328;2024-03-06T09:50:22;4.47;;;3.78;;
7031;SDS011;3557;48.880;8.328;2024-03-06T09:52:52;5.93;;;3.95;;
7031;SDS011;3557;48.880;8.328;2024-03-06T09:55:20;6.18;;;4.00;;
7031;SDS011;3557;48.880;8.328;2024-03-06T09:57:49;6.47;;;4.28;;
7031;SDS011;3557;48.880;8.328;2024-03-06T10:00:16;5.38;;;3.83;;
7031;SDS011;3557;48.880;8.328;2024-03-06T10:02:47;7.20;;;4.40;;
7031;SDS011;3557;48.880;8.328;2024-03-06T10:05:23;5.80;;;3.75;;
7031;SDS011;3557;48.880;8.328;2024-03-06T10:07:52;6.68;;;4.10;;
7031;SDS011;3557;48.880;8.328;2024-03-06T10:10:20;7.65;;;4.10;;
7031;SDS011;3557;48.880;8.328;2024-03-06T10:12:49;5.50;;;4.25;;
7031;SDS011;3557;48.880;8.328;2024-03-06T10:15:16;5.88;;;3.72;;
7031;SDS011;3557;48.880;8.328;2024-03-06T10:17:44;5.65;;;4.20;;
7031;SDS011;3557;48.880;8.328;2024-03-06T10:20:19;6.60;;;4.25;;
7031;SDS011;3557;48.880;8.328;2024-03-06T10:22:49;5.25;;;4.13;;
7031;SDS011;3557;48.880;8.328;2024-03-06T10:25:18;6.35;;;4.05;;
7031;SDS011;3557;48.880;8.328;2024-03-06T10:27:47;5.40;;;4.20;;
7031;SDS011;3557;48.880;8.328;2024-03-06T10:30:32;5.93;;;4.40;;
7031;SDS011;3557;48.880;8.328;2024-03-06T10:33:01;6.15;;;4.05;;
7031;SDS011;3557;48.880;8.328;2024-03-06T10:35:31;7.10;;;4.75;;
7031;SDS011;3557;48.880;8.328;2024-03-06T10:37:59;7.25;;;4.90;;
7031;SDS011;3557;48.880;8.328;2024-03-06T10:40:28;6.85;;;4.28;;
7031;SDS011;3557;48.880;8.328;2024-03-06T10:42:59;6.35;;;4.30;;
7031;SDS011;3557;48.880;8.328;2024-03-06T10:45:29;6.10;;;4.00;;
7031;SDS011;3557;48.880;8.328;2024-03-06T10:48:06;5.75;;;4.00;;
7031;SDS011;3557;48.880;8.328;2024-03-06T10:50:39;7.25;;;4.43;;
7031;SDS011;3557;48.880;8.328;2024-03-06T10:53:09;6.18;;;4.25;;
7031;SDS011;3557;48.880;8.328;2024-03-06T10:55:38;7.32;;;4.57;;
7031;SDS011;3557;48.880;8.328;2024-03-06T10:58:06;8.10;;;4.57;;
7031;SDS011;3557;48.880;8.328;2024-03-06T11:00:35;10.82;;;4.68;;
7031;SDS011;3557;48.880;8.328;2024-03-06T11:03:04;5.82;;;4.70;;
7031;SDS011;3557;48.880;8.328;2024-03-06T11:05:34;6.63;;;4.55;;
7031;SDS011;3557;48.880;8.328;2024-03-06T11:08:06;7.90;;;4.80;;
7031;SDS011;3557;48.880;8.328;2024-03-06T11:10:40;7.30;;;5.38;;
7031;SDS011;3557;48.880;8.328;2024-03-06T11:13:09;7.85;;;5.40;;
7031;SDS011;3557;48.880;8.328;2024-03-06T11:21:27;8.98;;;6.30;;
7031;SDS011;3557;48.880;8.328;2024-03-06T11:24:19;8.32;;;6.07;;
7031;SDS011;3557;48.880;8.328;2024-03-06T11:26:48;6.50;;;5.47;;
7031;SDS011;3557;48.880;8.328;2024-03-06T11:29:21;6.97;;;5.65;;
7031;SDS011;3557;48.880;8.328;2024-03-06T11:31:56;9.35;;;5.57;;
7031;SDS011;3557;48.880;8.328;2024-03-06T11:34:28;7.57;;;5.47;;
7031;SDS011;3557;48.880;8.328;2024-03-06T11:36:56;9.38;;;5.82;;
7031;SDS011;3557;48.880;8.328;2024-03-06T11:39:28;6.82;;;5.20;;
7031;SDS011;3557;48.880;8.328;2024-03-06T11:42:01;6.53;;;5.03;;
7031;SDS011;3557;48.880;8.328;2024-03-06T11:44:31;7.07;;;5.43;;
7031;SDS011;3557;48.880;8.328;2024-03-06T11:46:59;8.70;;;5.72;;
7031;SDS011;3557;48.880;8.328;2024-03-06T11:49:27;8.05;;;6.00;;
7031;SDS011;3557;48.880;8.328;2024-03-06T11:51:59;8.93;;;5.90;;
7031;SDS011;3557;48.880;8.328;2024-03-06T11:54:29;10.05;;;6.05;;
7031;SDS011;3557;48.880;8.328;2024-03-06T11:56:58;10.35;;;6.45;;
7031;SDS011;3557;48.880;8.328;2024-03-06T11:59:27;9.10;;;6.07;;
7031;SDS011;3557;48.880;8.328;2024-03-06T12:01:57;8.40;;;5.95;;
7031;SDS011;3557;48.880;8.328;2024-03-06T12:04:27;6.78;;;5.78;;
7031;SDS011;3557;48.880;8.328;2024-03-06T12:06:56;10.10;;;5.80;;
7031;SDS011;3557;48.880;8.328;2024-03-06T12:09:25;8.55;;;6.95;;
7031;SDS011;3557;48.880;8.328;2024-03-06T12:11:55;7.82;;;6.45;;
7031;SDS011;3557;48.880;8.328;2024-03-06T12:14:22;7.43;;;5.82;;
7031;SDS011;3557;48.880;8.328;2024-03-06T12:16:56;8.35;;;6.03;;
7031;SDS011;3557;48.880;8.328;2024-03-06T12:19:25;9.23;;;6.03;;
7031;SDS011;3557;48.880;8.328;2024-03-06T12:21:55;8.00;;;5.88;;
7031;SDS011;3557;48.880;8.328;2024-03-06T12:24:25;9.20;;;5.80;;
7031;SDS011;3557;48.880;8.328;2024-03-06T12:26:59;10.65;;;6.30;;
7031;SDS011;3557;48.880;8.328;2024-03-06T12:29:28;11.50;;;7.15;;
7031;SDS011;3557;48.880;8.328;2024-03-06T12:31:57;9.48;;;6.57;;
7031;SDS011;3557;48.880;8.328;2024-03-06T12:34:25;8.15;;;6.22;;
7031;SDS011;3557;48.880;8.328;2024-03-06T12:36:52;7.10;;;6.03;;
7031;SDS011;3557;48.880;8.328;2024-03-06T12:39:20;8.32;;;6.40;;
7031;SDS011;3557;48.880;8.328;2024-03-06T12:41:48;9.60;;;6.50;;
7031;SDS011;3557;48.880;8.328;2024-03-06T12:44:18;8.82;;;6.32;;
7031;SDS011;3557;48.880;8.328;2024-03-06T12:46:46;7.38;;;6.55;;
7031;SDS011;3557;48.880;8.328;2024-03-06T12:49:14;7.93;;;6.00;;
7031;SDS011;3557;48.880;8.328;2024-03-06T12:51:43;7.05;;;6.00;;
7031;SDS011;3557;48.880;8.328;2024-03-06T12:54:11;7.40;;;6.45;;
7031;SDS011;3557;48.880;8.328;2024-03-06T12:56:38;7.13;;;6.22;;
7031;SDS011;3557;48.880;8.328;2024-03-06T12:59:06;11.77;;;6.68;;
7031;SDS011;3557;48.880;8.328;2024-03-06T13:01:37;10.07;;;6.40;;
7031;SDS011;3557;48.880;8.328;2024-03-06T13:04:04;7.68;;;6.15;;
7031;SDS011;3557;48.880;8.328;2024-03-06T13:06:33;8.20;;;6.07;;
7031;SDS011;3557;48.880;8.328;2024-03-06T13:09:00;11.30;;;6.28;;
7031;SDS011;3557;48.880;8.328;2024-03-06T13:11:27;7.93;;;6.05;;
7031;SDS011;3557;48.880;8.328;2024-03-06T13:13:55;7.05;;;5.53;;
7031;SDS011;3557;48.880;8.328;2024-03-06T13:16:23;14.27;;;8.98;;
7031;SDS011;3557;48.880;8.328;2024-03-06T13:18:52;12.38;;;8.23;;
7031;SDS011;3557;48.880;8.328;2024-03-06T13:21:22;10.13;;;5.93;;
7031;SDS011;3557;48.880;8.328;2024-03-06T13:23:49;10.38;;;7.30;;
7031;SDS011;3557;48.880;8.328;2024-03-06T13:26:16;26.42;;;7.35;;
7031;SDS011;3557;48.880;8.328;2024-03-06T13:28:44;10.05;;;6.55;;
7031;SDS011;3557;48.880;8.328;2024-03-06T13:31:12;7.95;;;6.80;;
7031;SDS011;3557;48.880;8.328;2024-03-06T13:33:39;12.15;;;6.63;;
7031;SDS011;3557;48.880;8.328;2024-03-06T13:36:09;14.45;;;7.25;;
7031;SDS011;3557;48.880;8.328;2024-03-06T13:38:36;30.55;;;7.78;;
7031;SDS011;3557;48.880;8.328;2024-03-06T13:41:03;11.05;;;6.95;;
7031;SDS011;3557;48.880;8.328;2024-03-06T13:43:31;33.95;;;7.75;;
7031;SDS011;3557;48.880;8.328;2024-03-06T13:45:58;13.25;;;6.82;;
7031;SDS011;3557;48.880;8.328;2024-03-06T13:48:26;10.55;;;6.90;;
7031;SDS011;3557;48.880;8.328;2024-03-06T13:50:53;7.28;;;5.97;;
7031;SDS011;3557;48.880;8.328;2024-03-06T13:53:22;8.85;;;5.80;;
7031;SDS011;3557;48.880;8.328;2024-03-06T13:55:49;8.18;;;6.30;;
7031;SDS011;3557;48.880;8.328;2024-03-06T13:58:17;7.13;;;6.05;;
7031;SDS011;3557;48.880;8.328;2024-03-06T14:00:44;6.60;;;5.78;;
7031;SDS011;3557;48.880;8.328;2024-03-06T14:03:12;7.10;;;5.97;;
7031;SDS011;3557;48.880;8.328;2024-03-06T14:05:40;9.05;;;5.55;;
7031;SDS011;3557;48.880;8.328;2024-03-06T14:08:07;10.45;;;7.07;;
7031;SDS011;3557;48.880;8.328;2024-03-06T14:10:38;11.18;;;7.60;;
7031;SDS011;3557;48.880;8.328;2024-03-06T14:13:06;12.63;;;7.70;;
7031;SDS011;3557;48.880;8.328;2024-03-06T14:15:33;8.73;;;7.80;;
7031;SDS011;3557;48.880;8.328;2024-03-06T14:18:01;12.18;;;7.30;;
7031;SDS011;3557;48.880;8.328;2024-03-06T14:20:29;9.23;;;7.10;;
7031;SDS011;3557;48.880;8.328;2024-03-06T14:22:57;8.77;;;6.90;;
7031;SDS011;3557;48.880;8.328;2024-03-06T14:25:24;10.88;;;7.53;;
7031;SDS011;3557;48.880;8.328;2024-03-06T14:27:53;10.23;;;7.40;;
7031;SDS011;3557;48.880;8.328;2024-03-06T14:30:20;11.45;;;7.32;;
7031;SDS011;3557;48.880;8.328;2024-03-06T14:32:47;13.05;;;9.43;;
7031;SDS011;3557;48.880;8.328;2024-03-06T14:35:15;9.88;;;8.23;;
7031;SDS011;3557;48.880;8.328;2024-03-06T14:37:43;13.15;;;8.93;;
7031;SDS011;3557;48.880;8.328;2024-03-06T14:40:10;13.68;;;8.90;;
7031;SDS011;3557;48.880;8.328;2024-03-06T14:42:38;10.52;;;7.30;;
7031;SDS011;3557;48.880;8.328;2024-03-06T14:45:07;9.30;;;7.68;;
7031;SDS011;3557;48.880;8.328;2024-03-06T14:47:35;11.63;;;8.32;;
7031;SDS011;3557;48.880;8.328;2024-03-06T14:50:03;13.10;;;8.88;;
7031;SDS011;3557;48.880;8.328;2024-03-06T14:52:31;13.73;;;8.63;;
7031;SDS011;3557;48.880;8.328;2024-03-06T14:54:59;10.45;;;8.85;;
7031;SDS011;3557;48.880;8.328;2024-03-06T14:57:28;14.50;;;9.15;;
7031;SDS011;3557;48.880;8.328;2024-03-06T14:59:55;35.55;;;21.23;;
7031;SDS011;3557;48.880;8.328;2024-03-06T15:02:24;23.50;;;15.70;;
7031;SDS011;3557;48.880;8.328;2024-03-06T15:04:52;13.15;;;9.25;;
7031;SDS011;3557;48.880;8.328;2024-03-06T15:07:19;9.52;;;8.52;;
7031;SDS011;3557;48.880;8.328;2024-03-06T15:09:46;12.00;;;8.77;;
7031;SDS011;3557;48.880;8.328;2024-03-06T15:12:14;10.45;;;7.88;;
7031;SDS011;3557;48.880;8.328;2024-03-06T15:14:41;12.77;;;8.20;;
7031;SDS011;3557;48.880;8.328;2024-03-06T15:17:08;10.40;;;7.78;;
7031;SDS011;3557;48.880;8.328;2024-03-06T15:19:37;10.95;;;8.02;;
7031;SDS011;3557;48.880;8.328;2024-03-06T15:22:05;11.85;;;8.02;;
7031;SDS011;3557;48.880;8.328;2024-03-06T15:24:32;10.35;;;7.80;;